Language selection

Weather shortcuts

Central Brevoort - southern half: Past 24 Hour Conditions

 

Cartwright Airport

05:00 AM ADT 14 June 2024
Disclaimer

This table is a summary of hourly weather conditions for the past 24 hours.
Please note that these observations might not always be representative of weather conditions over their associated marine area.

Date / Time
(ADT)
Wind(knots) Conditions Visibility(km) Pressure(kPa) Air tempC) Relative humidity(%) Dew pointC)
14 June 2024
5:00 WSW 2 Fog 0.4 100.8 6 100 6
4:00 NE 2 Fog 0.2 100.7 6 100 6
3:00 E 2 Mist 2 100.7 7 100 7
2:00 NNE 2 Mist 3 100.7 7 100 7
1:00 NE 3 Mist 1 100.7 7 100 7
0:00 calm Fog 0.4 100.7 8 100 8
13 June 2024
23:00 E 2 Fog 0.6 100.7 7 100 7
22:00 N 3 Fog 0.4 100.7 7 100 7
21:00 NNE 5 Fog 0.4 100.7 7 100 7
20:00 N 6 Mist 2 100.6 7 100 7
19:00 ENE 6 Cloudy 16 100.6 9 100 9
18:00 NE 8 Light Rain 16 100.6 8 100 8
17:00 NNE 8 Light Rain 10 100.6 8 100 8
16:00 NE 6 Light Rain 11 100.6 9 100 9
15:00 NE 7 gusts 15 Light Rain 11 100.6 10 100 10
14:00 ENE 7 Light Rain 16 100.6 11 100 11
13:00 NE 6 Light Rain 16 100.7 12 100 12
12:00 N 6 Light Rain 16 100.6 13 100 13
11:00 SE 5 gusts 16 Light Rain 16 100.7 14 94 13
10:00 NNE 2 Mostly Cloudy 16 100.8 16 77 12
9:00 NNE 3 Cloudy 16 100.9 16 78 12
8:00 WNW 3 Cloudy 16 100.9 15 85 12
7:00 N 2 Mostly Cloudy 16 101.0 13 94 12
6:00 calm Partly Cloudy 16 101.0 12 97 12
5:00 calm Cloudy 16 101.1 12 94 11

Zoom-in to make a selection

Map of Atlantic - Labrador marine weather areas Kangiqsualujjuaq Airport Cape Kakkiviak Cape Kiglapait Cartwright Airport CFB Goose Bay Hopedale Mary's Harbour Nain Airport Makkovik Airport Saglek Tukialik Bay
Legend:
buoy Buoy
land station Land Station

Atlantic - Labrador Area

Another Region

Features

New Predicting and Alerting Coastal Flooding Program

Find out about coastal flooding coverage, forecasts and warnings in your region

Date modified: